^^
Grace C. Lehan Memorial Weather Station Historical Data
Daily Summary for May 9, 2021 Units:  Metric    English   Both
Daily Weekly Monthly Yearly
  High: Low: Average:
Temperature: 23.6 °C 18.9 °C 22.4 °C
Dew Point: 21.9 °C 18.1 °C 21.1 °C
Humidity: 95% 89% 93%
Wind Speed: 0.5km/h 0km/h 0km/h
Wind Gust: 6.4km/h - -
Wind- - SSW
Pressure: 1008 hPa 1005 hPa -
Precipitation: 0.51 mm    
 
 
Tabular Data for May 9, 2021
Time Temperature Dew Point Pressure Wind Wind Speed Wind Gust Humidity Rainfall Rate (Hourly) solar
00:00 23.4 °C 21.6 °C 1008 hPa Calm   3.2 km/h 89% 0 mm 0 W/m2
00:09 23.4 °C 21.6 °C 1008 hPa South 0.2 km/h 3.2 km/h 89% 0 mm 0 W/m2
00:14 23.4 °C 21.6 °C 1007.7 hPa Calm   3.2 km/h 89% 0 mm 0 W/m2
00:19 23.5 °C 21.6 °C 1007.7 hPa Calm   3.2 km/h 89% 0 mm 0 W/m2
00:24 23.5 °C 21.6 °C 1007.7 hPa Calm   3.2 km/h 89% 0 mm 0 W/m2
00:29 23.5 °C 21.6 °C 1007.7 hPa Calm   3.2 km/h 89.2% 0 mm 0 W/m2
00:34 23.5 °C 21.7 °C 1007.7 hPa Calm   3.2 km/h 90% 0 mm 0 W/m2
00:39 23.4 °C 21.7 °C 1007.7 hPa Calm     90% 0 mm 0 W/m2
00:44 23.4 °C 21.7 °C 1007.7 hPa Calm     90% 0 mm 0 W/m2
00:49 23.4 °C 21.7 °C 1007.3 hPa Calm     90% 0 mm 0 W/m2
00:54 23.5 °C 21.8 °C 1007.3 hPa Calm     90% 0 mm 0 W/m2
00:59 23.5 °C 21.8 °C 1007.3 hPa South 0.2 km/h 3.2 km/h 90% 0 mm 0 W/m2
01:04 23.5 °C 21.8 °C 1007.3 hPa Calm   3.2 km/h 90% 0 mm 0 W/m2
01:09 23.6 °C 21.8 °C 1007.3 hPa Calm     90% 0 mm 0 W/m2
01:14 23.6 °C 21.8 °C 1007.3 hPa Calm     90% 0 mm 0 W/m2
01:19 23.6 °C 21.8 °C 1007.3 hPa SSW 0.2 km/h 3.2 km/h 90% 0 mm 0 W/m2
01:24 23.6 °C 21.8 °C 1007.3 hPa Calm   3.2 km/h 89.5% 0 mm 0 W/m2
01:29 23.6 °C 21.7 °C 1007.3 hPa SSW 0.2 km/h 3.2 km/h 89.1% 0 mm 0 W/m2
01:34 23.6 °C 21.9 °C 1007.3 hPa SSW 0.2 km/h 3.2 km/h 90% 0 mm 0 W/m2
01:39 23.6 °C 21.9 °C 1007.3 hPa SSW 0.2 km/h 3.2 km/h 90% 0 mm 0 W/m2
01:44 23.6 °C 21.9 °C 1007.3 hPa SSW 0.3 km/h 4.8 km/h 90% 0 mm 0 W/m2
01:49 23.6 °C 21.9 °C 1007.3 hPa Calm   4.8 km/h 90% 0 mm 0 W/m2
01:54 23.6 °C 21.7 °C 1007.3 hPa Calm   4.8 km/h 89.2% 0 mm 0 W/m2
01:59 23.6 °C 21.7 °C 1007.3 hPa Calm   4.8 km/h 89% 0 mm 0 W/m2
02:04 23.6 °C 21.8 °C 1007.3 hPa Calm   4.8 km/h 89.8% 0 mm 0 W/m2
02:09 23.6 °C 21.8 °C 1007.3 hPa Calm     90% 0 mm 0 W/m2
02:14 23.6 °C 21.8 °C 1007.3 hPa Calm     90% 0 mm 0 W/m2
02:19 23.6 °C 21.8 °C 1007.3 hPa Calm     90% 0 mm 0 W/m2
02:24 23.6 °C 21.8 °C 1007 hPa Calm     90% 0 mm 0 W/m2
02:29 23.6 °C 21.7 °C 1007 hPa Calm     89.1% 0 mm 0 W/m2
02:34 23.6 °C 21.6 °C 1007 hPa Calm     89% 0 mm 0 W/m2
02:39 23.6 °C 21.6 °C 1006.7 hPa Calm     89% 0 mm 0 W/m2
02:44 23.6 °C 21.6 °C 1006.7 hPa Calm     89% 0 mm 0 W/m2
02:49 23.6 °C 21.6 °C 1006.3 hPa Calm     89% 0 mm 0 W/m2
02:54 23.6 °C 21.6 °C 1006.3 hPa Calm     89% 0 mm 0 W/m2
02:59 23.6 °C 21.6 °C 1006.3 hPa Calm     89% 0 mm 0 W/m2
03:04 23.6 °C 21.6 °C 1006.3 hPa Calm     89% 0 mm 0 W/m2
03:09 23.6 °C 21.6 °C 1006.7 hPa Calm     89% 0 mm 0 W/m2
03:14 23.6 °C 21.8 °C 1006.7 hPa Calm     89.9% 0 mm 0 W/m2
03:19 23.6 °C 21.8 °C 1006.3 hPa Calm     90% 0 mm 0 W/m2
03:24 23.5 °C 21.8 °C 1006.3 hPa Calm     90% 0 mm 0 W/m2
03:29 23.5 °C 21.8 °C 1006.3 hPa Calm     90% 0 mm 0 W/m2
03:34 23.4 °C 21.7 °C 1006.3 hPa Calm     90% 0 mm 0 W/m2
03:39 23.4 °C 21.7 °C 1006.3 hPa Calm     90% 0 mm 0 W/m2
03:44 23.4 °C 21.6 °C 1006.3 hPa Calm     90% 0 mm 0 W/m2
03:49 23.2 °C 21.3 °C 1006 hPa Calm     89.1% 0 mm 0 W/m2
03:54 23.1 °C 21.1 °C 1006 hPa Calm     89% 0 mm 0 W/m2
03:59 22.9 °C 21 °C 1006 hPa Calm     89% 0 mm 0 W/m2
04:00 22.8 °C 20.9 °C 1006 hPa Calm     89% 0 mm 0 W/m2
04:09 22.7 °C 21 °C 1006.3 hPa Calm     89.9% 0 mm 0 W/m2
04:14 22.7 °C 20.9 °C 1006.3 hPa Calm     90% 0 mm 0 W/m2
04:19 22.7 °C 21.1 °C 1006.3 hPa Calm     90.6% 0 mm 0 W/m2
04:24 22.6 °C 21.1 °C 1006.3 hPa SSW 0.5 km/h 6.4 km/h 91% 0 mm 0 W/m2
04:29 22.6 °C 21.1 °C 1006.3 hPa SSW 0.2 km/h 6.4 km/h 91% 0 mm 0 W/m2
04:34 22.6 °C 21.3 °C 1006.3 hPa Calm   6.4 km/h 92% 0 mm 0 W/m2
04:39 22.6 °C 21.2 °C 1006.3 hPa Calm     92% 0 mm 0 W/m2
04:44 22.6 °C 21.2 °C 1006.7 hPa Calm     92% 0 mm 0 W/m2
04:49 22.5 °C 21.2 °C 1006.7 hPa Calm     92% 0 mm 0 W/m2
04:54 22.4 °C 21.1 °C 1006.7 hPa Calm     92% 0 mm 0 W/m2
04:59 22.4 °C 21.1 °C 1006.7 hPa Calm     92% 0 mm 0 W/m2
05:04 22.4 °C 21.1 °C 1006.7 hPa Calm     92% 0 mm 0 W/m2
05:09 22.4 °C 21 °C 1006.7 hPa Calm     92% 0 mm 0 W/m2
05:14 22.4 °C 21.2 °C 1006.7 hPa Calm     93% 0 mm 0 W/m2
05:19 22.4 °C 21.2 °C 1006.7 hPa Calm     93% 0 mm 0 W/m2
05:24 22.4 °C 21.2 °C 1006.7 hPa Calm     93% 0 mm 0 W/m2
05:29 22.4 °C 21.2 °C 1006.7 hPa Calm     93% 0 mm 0 W/m2
05:34 22.4 °C 21.2 °C 1006.7 hPa Calm     93% 0 mm 0 W/m2
05:39 22.4 °C 21.2 °C 1006.3 hPa Calm     93% 0 mm 0 W/m2
05:44 22.4 °C 21.2 °C 1006.3 hPa Calm     93% 0 mm 0 W/m2
05:49 22.4 °C 21.3 °C 1006.3 hPa Calm     93.8% 0 mm 0 W/m2
05:54 22.4 °C 21.4 °C 1006.3 hPa Calm     94% 0 mm 0 W/m2
05:59 22.4 °C 21.4 °C 1006.3 hPa Calm     94% 0 mm 0 W/m2
06:04 22.4 °C 21.4 °C 1006.3 hPa Calm     94% 0 mm 0 W/m2
06:09 22.4 °C 21.4 °C 1006.7 hPa Calm     94% 0 mm 0 W/m2
06:14 22.4 °C 21.4 °C 1006.3 hPa Calm     94% 0 mm 0 W/m2
06:19 22.4 °C 21.4 °C 1006.7 hPa Calm     94% 0 mm 0 W/m2
06:24 22.4 °C 21.4 °C 1006.7 hPa Calm     94% 0 mm 0 W/m2
06:29 22.4 °C 21.4 °C 1006.7 hPa Calm     94% 0 mm 0 W/m2
06:34 22.3 °C 21.3 °C 1007 hPa Calm     94% 0 mm 0 W/m2
06:39 22.3 °C 21.3 °C 1007 hPa Calm     94% 0 mm 7 W/m2
06:41 22.3 °C 21.3 °C 1007 hPa Calm     94% 0 mm 7 W/m2
07:00 22.2 °C 21.2 °C 1007.3 hPa Calm     94% 0 mm 11 W/m2
07:30 22.3 °C 21.3 °C 1007.3 hPa Calm     94% 0 mm 20 W/m2
08:04 22.4 °C 21.4 °C 1007.7 hPa Calm     94% 0 mm 14 W/m2
08:09 22.5 °C 21.5 °C 1008 hPa Calm     94% 0 mm 18 W/m2
08:14 22.6 °C 21.6 °C 1008 hPa Calm     94% 0 mm 28 W/m2
08:19 22.6 °C 21.6 °C 1007.7 hPa Calm     94% 0 mm 33 W/m2
08:24 22.6 °C 21.6 °C 1007.3 hPa Calm     94% 0.25 mm 32 W/m2
08:29 22.6 °C 21.6 °C 1007.3 hPa Calm     94% 0.51 mm 26 W/m2
08:34 22.6 °C 21.6 °C 1007.3 hPa Calm     94% 0.51 mm 35 W/m2
08:39 22.6 °C 21.6 °C 1007.3 hPa Calm     94% 0.51 mm 53 W/m2
08:44 22.6 °C 21.6 °C 1007.3 hPa Calm     94% 0.51 mm 54 W/m2
08:49 22.6 °C 21.6 °C 1007.3 hPa Calm     94% 0.51 mm 58 W/m2
08:54 22.6 °C 21.6 °C 1007.3 hPa Calm     94% 0.51 mm 77 W/m2
08:59 22.6 °C 21.5 °C 1007.3 hPa Calm     94% 0.51 mm 88 W/m2
09:04 22.5 °C 21.5 °C 1007 hPa Calm     94% 0.51 mm 118 W/m2
09:09 22.4 °C 21.4 °C 1007 hPa Calm     94% 0 mm 141 W/m2
09:14 22.5 °C 21.5 °C 1007 hPa Calm     94% 0 mm 104 W/m2
09:19 22.6 °C 21.6 °C 1007 hPa Calm   1.6 km/h 94% 0 mm 100 W/m2
09:24 22.6 °C 21.6 °C 1007 hPa Calm   1.6 km/h 93.9% 0 mm 72 W/m2
09:29 22.6 °C 21.4 °C 1007 hPa Calm   1.6 km/h 93.2% 0 mm 69 W/m2
09:34 22.5 °C 21.3 °C 1007 hPa Calm   1.6 km/h 93.2% 0 mm 74 W/m2
09:39 22.5 °C 21.4 °C 1007 hPa Calm     93.7% 0 mm 62 W/m2
09:44 22.4 °C 21.2 °C 1007.3 hPa Calm     93% 0 mm 79 W/m2
09:49 22.3 °C 21.2 °C 1007 hPa Calm     93% 0 mm 151 W/m2
09:54 22.3 °C 21.2 °C 1007.3 hPa SSW 0.2 km/h 1.6 km/h 93.4% 0 mm 148 W/m2
09:59 22.3 °C 21.1 °C 1007.3 hPa SW 0.2 km/h 3.2 km/h 93.2% 0 mm 95 W/m2
10:04 22.2 °C 21.1 °C 1007.3 hPa Calm   3.2 km/h 93% 0 mm 81 W/m2
10:09 22.2 °C 21 °C 1007.3 hPa Calm   1.6 km/h 93% 0 mm 104 W/m2
10:14 22.2 °C 21 °C 1007.7 hPa Calm   1.6 km/h 93% 0 mm 102 W/m2
10:19 22.2 °C 21 °C 1007.7 hPa Calm   1.6 km/h 93% 0 mm 84 W/m2
10:24 22.2 °C 20.8 °C 1007.7 hPa Calm   1.6 km/h 92.4% 0.25 mm 46 W/m2
10:29 22.1 °C 20.7 °C 1007.7 hPa Calm   1.6 km/h 92% 0.51 mm 44 W/m2
10:34 22.1 °C 20.7 °C 1007.7 hPa Calm   1.6 km/h 92% 0.76 mm 44 W/m2
10:39 22 °C 20.7 °C 1007.7 hPa Calm     92% 0.76 mm 46 W/m2
10:44 22 °C 20.8 °C 1007.3 hPa Calm     92.9% 1.02 mm 53 W/m2
10:49 22 °C 20.8 °C 1007.3 hPa Calm     93% 1.02 mm 67 W/m2
10:54 22 °C 20.8 °C 1007.3 hPa Calm     93% 1.02 mm 84 W/m2
10:59 22.1 °C 20.9 °C 1007.3 hPa Calm     93% 1.02 mm 90 W/m2
11:04 22.1 °C 20.9 °C 1007.3 hPa Calm   1.6 km/h 93% 1.02 mm 91 W/m2
11:09 22.1 °C 21 °C 1007.3 hPa Calm   1.6 km/h 93.6% 1.02 mm 97 W/m2
11:14 22.1 °C 21 °C 1007.3 hPa Calm   1.6 km/h 93.8% 1.02 mm 98 W/m2
11:19 22.1 °C 20.9 °C 1007.3 hPa Calm   1.6 km/h 93.5% 1.02 mm 98 W/m2
11:24 22.1 °C 21.1 °C 1007.7 hPa Calm   1.6 km/h 94% 1.02 mm 123 W/m2
11:29 22.2 °C 21.2 °C 1007.7 hPa Calm   1.6 km/h 94% 1.27 mm 125 W/m2
11:34 22.3 °C 21.3 °C 1007.7 hPa Calm   1.6 km/h 94% 1.27 mm 121 W/m2
11:39 22.4 °C 21.4 °C 1007.7 hPa Calm     94% 1.02 mm 72 W/m2
11:44 22.4 °C 21.4 °C 1007.3 hPa Calm     94% 1.02 mm 47 W/m2
11:49 22.4 °C 21.4 °C 1007.3 hPa Calm     94% 1.52 mm 32 W/m2
11:54 22.4 °C 21.4 °C 1007.3 hPa Calm     94% 1.78 mm 40 W/m2
11:59 22.4 °C 21.4 °C 1007.3 hPa Calm     94% 1.78 mm 37 W/m2
12:09 22.4 °C 21.4 °C 1007.3 hPa Calm     94% 2.03 mm 40 W/m2
12:14 22.4 °C 21.4 °C 1007.3 hPa Calm     94% 2.03 mm 49 W/m2
12:19 22.4 °C 21.4 °C 1007.3 hPa Calm     94% 2.29 mm 53 W/m2
12:24 22.4 °C 21.4 °C 1007.3 hPa Calm     94% 2.29 mm 56 W/m2
12:29 22.4 °C 21.4 °C 1007.3 hPa Calm     94% 2.29 mm 84 W/m2
12:34 22.4 °C 21.4 °C 1007 hPa Calm     94% 2.29 mm 105 W/m2
12:39 22.4 °C 21.4 °C 1007 hPa Calm     94% 1.52 mm 111 W/m2
12:44 22.4 °C 21.4 °C 1007 hPa Calm     94% 1.52 mm 113 W/m2
12:49 22.4 °C 21.4 °C 1007 hPa Calm     94% 1.52 mm 116 W/m2
12:54 22.4 °C 21.4 °C 1007 hPa Calm     94% 1.78 mm 123 W/m2
12:59 22.4 °C 21.4 °C 1007 hPa Calm     94% 1.78 mm 127 W/m2
13:04 22.5 °C 21.5 °C 1007 hPa Calm     94% 1.78 mm 141 W/m2
13:09 22.6 °C 21.6 °C 1007 hPa Calm     94% 0.25 mm 134 W/m2
13:14 22.7 °C 21.7 °C 1006.7 hPa Calm     94% 0.25 mm 113 W/m2
13:19 22.7 °C 21.7 °C 1006.7 hPa Calm     94% 0.25 mm 74 W/m2
13:24 22.7 °C 21.7 °C 1006.7 hPa Calm     94% 0.25 mm 70 W/m2
13:29 22.6 °C 21.5 °C 1006.7 hPa Calm     93.3% 0.25 mm 105 W/m2
13:34 22.6 °C 21.4 °C 1007 hPa Calm     93% 0.25 mm 137 W/m2
13:39 22.6 °C 21.4 °C 1006.7 hPa Calm     93% 0.51 mm 125 W/m2
13:44 22.6 °C 21.4 °C 1007 hPa Calm     93% 0.51 mm 91 W/m2
13:49 22.6 °C 21.5 °C 1007 hPa Calm     93.1% 0.51 mm 76 W/m2
13:54 22.7 °C 21.7 °C 1007 hPa Calm     94% 0.76 mm 63 W/m2
13:59 22.8 °C 21.8 °C 1007 hPa Calm     94% 0.76 mm 56 W/m2
14:04 22.8 °C 21.8 °C 1006.7 hPa Calm     94% 0.76 mm 58 W/m2
14:09 22.8 °C 21.7 °C 1006.7 hPa Calm     93% 0.51 mm 81 W/m2
14:14 22.9 °C 21.7 °C 1006.7 hPa Calm     93% 0.51 mm 142 W/m2
14:19 22.9 °C 21.7 °C 1006.7 hPa Calm     93% 0.51 mm 199 W/m2
14:24 22.9 °C 21.7 °C 1006.7 hPa Calm     93% 0.51 mm 199 W/m2
14:29 23 °C 21.8 °C 1006.7 hPa Calm   3.2 km/h 93% 0.51 mm 176 W/m2
14:34 22.9 °C 21.6 °C 1006.7 hPa Calm   3.2 km/h 92.2% 0.51 mm 176 W/m2
14:39 22.9 °C 21.6 °C 1006.7 hPa Calm     92.3% 0.51 mm 160 W/m2
14:44 22.9 °C 21.6 °C 1006.7 hPa Calm     92% 0.51 mm 155 W/m2
14:49 22.9 °C 21.6 °C 1006.7 hPa Calm     92% 0.51 mm 114 W/m2
14:54 23.1 °C 21.7 °C 1006.3 hPa Calm     92% 0.51 mm 98 W/m2
14:59 23 °C 21.7 °C 1006.3 hPa Calm     92% 0.76 mm 100 W/m2
15:04 23 °C 21.6 °C 1006.7 hPa Calm     91.8% 0.76 mm 105 W/m2
15:09 23 °C 21.6 °C 1006.7 hPa Calm     92% 0.25 mm 93 W/m2
15:14 23 °C 21.7 °C 1006.3 hPa Calm     92% 0.25 mm 93 W/m2
15:19 23.1 °C 21.7 °C 1006.3 hPa Calm     92% 0.25 mm 93 W/m2
15:24 23.1 °C 21.7 °C 1006.3 hPa Calm     92% 0.25 mm 88 W/m2
15:29 23 °C 21.6 °C 1006.3 hPa Calm     91.8% 0.25 mm 60 W/m2
15:34 22.9 °C 21.4 °C 1006.3 hPa Calm     91.4% 0.25 mm 39 W/m2
15:39 22.9 °C 21.5 °C 1006.3 hPa Calm     91.8% 0.25 mm 42 W/m2
15:44 22.8 °C 21.3 °C 1006 hPa Calm     91% 0.25 mm 47 W/m2
15:49 22.7 °C 21.2 °C 1005.6 hPa Calm     91.3% 0.25 mm 58 W/m2
15:54 22.6 °C 21.1 °C 1005.6 hPa Calm     91.1% 0.25 mm 62 W/m2
15:59 22.6 °C 21.2 °C 1005.6 hPa Calm     91.8% 0.25 mm 62 W/m2
16:00 22.6 °C 21.2 °C 1005.6 hPa Calm     92% 0.25 mm 60 W/m2
16:09 22.6 °C 21.2 °C 1005.3 hPa Calm     92% 0 mm 60 W/m2
16:14 22.5 °C 21.2 °C 1005.6 hPa Calm     92% 0 mm 39 W/m2
16:19 22.4 °C 20.9 °C 1005.6 hPa Calm     91.4% 0 mm 39 W/m2
16:24 22.3 °C 20.7 °C 1005.6 hPa Calm     91% 0 mm 33 W/m2
16:29 22.2 °C 20.6 °C 1005.6 hPa Calm     91% 0 mm 32 W/m2
16:34 22.1 °C 20.6 °C 1005.6 hPa Calm     91% 0 mm 32 W/m2
16:39 22 °C 20.4 °C 1005.6 hPa Calm     91% 0 mm 30 W/m2
16:44 21.9 °C 20.4 °C 1005.6 hPa Calm     91% 0 mm 26 W/m2
16:49 21.9 °C 20.3 °C 1005.6 hPa Calm     91% 0 mm 25 W/m2
16:54 21.8 °C 20.4 °C 1005.3 hPa Calm     91.9% 0.25 mm 25 W/m2
16:59 21.8 °C 20.4 °C 1005.3 hPa Calm     92% 0.25 mm 23 W/m2
17:04 21.7 °C 20.3 °C 1005.6 hPa Calm     91.8% 0.51 mm 19 W/m2
17:09 21.6 °C 20.2 °C 1005.6 hPa Calm     92% 0.51 mm 23 W/m2
17:14 21.6 °C 20.2 °C 1006 hPa Calm     92% 0.51 mm 25 W/m2
17:19 21.5 °C 20.2 °C 1006 hPa Calm     92.5% 0.51 mm 18 W/m2
17:24 21.4 °C 20.1 °C 1006 hPa Calm     92% 0.76 mm 19 W/m2
17:29 21.3 °C 19.9 °C 1006 hPa Calm     92% 0.76 mm 19 W/m2
17:34 21.3 °C 20.1 °C 1006 hPa Calm     92.8% 0.76 mm 19 W/m2
17:39 21.3 °C 20.1 °C 1006 hPa Calm     93% 0.76 mm 19 W/m2
17:44 21.2 °C 20.1 °C 1006 hPa Calm     93% 0.76 mm 18 W/m2
17:49 21.2 °C 20 °C 1006 hPa Calm     93% 0.76 mm 18 W/m2
17:54 21.1 °C 19.9 °C 1005.6 hPa Calm     93% 0.76 mm 16 W/m2
17:59 21.1 °C 19.9 °C 1005.6 hPa Calm     93% 1.02 mm 12 W/m2
18:04 21.1 °C 19.9 °C 1005.6 hPa Calm     93% 1.02 mm 11 W/m2
18:09 21.1 °C 19.8 °C 1005.6 hPa Calm     93% 0.76 mm 11 W/m2
18:14 21 °C 19.9 °C 1005.6 hPa Calm     93.6% 0.76 mm 11 W/m2
18:19 20.9 °C 19.9 °C 1005.6 hPa Calm     93.8% 1.02 mm 12 W/m2
18:24 20.9 °C 19.9 °C 1005.6 hPa Calm     94% 1.02 mm 12 W/m2
18:29 20.9 °C 19.9 °C 1005.6 hPa Calm     94% 1.02 mm 12 W/m2
18:34 20.9 °C 19.9 °C 1005.6 hPa Calm     94% 1.02 mm 7 W/m2
18:39 20.9 °C 19.9 °C 1005.6 hPa Calm     94% 0.51 mm 5 W/m2
18:44 20.9 °C 19.9 °C 1005.6 hPa Calm     94% 0.51 mm 0 W/m2
18:49 20.9 °C 19.9 °C 1005.6 hPa Calm     94% 0.51 mm 0 W/m2
18:54 20.9 °C 19.9 °C 1005.6 hPa Calm     94% 0.51 mm 0 W/m2
18:59 20.9 °C 19.9 °C 1005.6 hPa Calm     94.1% 0.51 mm 0 W/m2
19:04 20.9 °C 20.1 °C 1005.3 hPa Calm     95% 0.51 mm 0 W/m2
19:09 20.9 °C 20.1 °C 1005.6 hPa Calm     95% 0.51 mm 0 W/m2
19:14 20.9 °C 20.1 °C 1005.6 hPa Calm     95% 0.51 mm 0 W/m2
19:19 20.9 °C 20.1 °C 1005.3 hPa Calm     95% 0.51 mm 0 W/m2
19:24 20.9 °C 20.1 °C 1005.3 hPa Calm     95% 0.51 mm 0 W/m2
19:29 20.9 °C 20.1 °C 1005.3 hPa Calm     95% 0.51 mm 0 W/m2
19:34 20.9 °C 20.1 °C 1005.3 hPa Calm     95% 0.51 mm 0 W/m2
19:39 20.8 °C 20 °C 1005.3 hPa Calm     95% 0.25 mm 0 W/m2
19:44 20.8 °C 20 °C 1005.3 hPa Calm     95% 0.25 mm 0 W/m2
19:49 20.8 °C 20 °C 1005.3 hPa Calm     95% 0.25 mm 0 W/m2
19:54 20.8 °C 20 °C 1005.3 hPa Calm     95% 0.25 mm 0 W/m2
19:59 20.8 °C 20 °C 1005.6 hPa Calm     95% 0.25 mm 0 W/m2
20:00 20.8 °C 20 °C 1005.6 hPa Calm     95% 0.25 mm 0 W/m2
20:09 20.8 °C 20 °C 1005.6 hPa Calm   1.6 km/h 95% 0.25 mm 0 W/m2
20:14 20.8 °C 20 °C 1005.3 hPa Calm   1.6 km/h 95% 0.51 mm 0 W/m2
20:19 20.8 °C 19.9 °C 1005.3 hPa Calm   1.6 km/h 95% 0.51 mm 0 W/m2
20:23 20.8 °C 19.9 °C 1005.3 hPa Calm   1.6 km/h 95% 0.51 mm 0 W/m2
20:30 20.7 °C 19.9 °C 1005.3 hPa Calm   1.6 km/h 95% 0.76 mm 0 W/m2
21:00 20.2 °C 19.4 °C 1005.6 hPa Calm   1.6 km/h 95% 0.51 mm 0 W/m2
21:30 19.8 °C 18.9 °C 1005 hPa Calm     95% 0.51 mm 0 W/m2
22:00 19.6 °C 18.7 °C 1005.6 hPa Calm     95% 0 mm 0 W/m2
23:00 19 °C 18.2 °C 1005.6 hPa Calm   4.8 km/h 95% 0 mm 0 W/m2
23:30 18.9 °C 18.1 °C 1005.6 hPa Calm     95% 0 mm 0 W/m2
Hartford County Weather
Compliments of Weather Underground - 2 mb